createdAt,value
2022-11-13T00:01:18.645Z,9.00
2022-11-13T00:03:46.531Z,8.98
2022-11-13T00:06:15.402Z,8.97
2022-11-13T00:08:43.668Z,8.96
2022-11-13T00:11:14.813Z,8.95
2022-11-13T00:13:43.071Z,8.92
2022-11-13T00:16:12.788Z,8.91
2022-11-13T00:18:42.757Z,8.89
2022-11-13T00:21:14.006Z,8.87
2022-11-13T00:23:41.844Z,8.84
2022-11-13T00:26:12.959Z,8.83
2022-11-13T00:28:41.155Z,8.79
2022-11-13T00:31:10.166Z,8.76
2022-11-13T00:34:05.407Z,8.73
2022-11-13T00:36:28.747Z,8.68
2022-11-13T00:38:56.833Z,8.65
2022-11-13T00:41:25.374Z,8.63
2022-11-13T00:43:53.313Z,8.58
2022-11-13T00:46:21.357Z,8.57
2022-11-13T00:48:49.094Z,8.54
2022-11-13T00:51:16.828Z,8.52
2022-11-13T00:53:45.906Z,8.48
2022-11-13T00:56:13.734Z,8.45
2022-11-13T00:58:41.478Z,8.43
2022-11-13T01:01:12.328Z,8.41
2022-11-13T01:03:40.715Z,8.40
2022-11-13T01:06:13.442Z,8.37
2022-11-13T01:08:41.196Z,8.36
2022-11-13T01:11:12.119Z,8.34
2022-11-13T01:13:40.449Z,8.31
2022-11-13T01:16:10.979Z,8.29
2022-11-13T01:18:39.080Z,8.27
2022-11-13T01:21:09.498Z,8.27
2022-11-13T01:23:37.401Z,8.25
2022-11-13T01:26:06.949Z,8.23
2022-11-13T01:28:36.082Z,8.25
2022-11-13T01:31:06.344Z,8.27
2022-11-13T01:33:34.152Z,8.26
2022-11-13T01:36:02.782Z,8.26
2022-11-13T01:38:35.769Z,8.24
2022-11-13T01:41:03.879Z,8.24
2022-11-13T01:43:33.482Z,8.20
2022-11-13T01:46:15.351Z,8.22
2022-11-13T01:48:46.722Z,8.19
2022-11-13T01:51:19.888Z,8.19
2022-11-13T01:53:49.065Z,8.19
2022-11-13T01:56:18.220Z,8.19
2022-11-13T01:58:50.002Z,8.20
2022-11-13T02:01:19.171Z,8.21
2022-11-13T02:03:46.907Z,8.20
2022-11-13T02:06:15.095Z,8.19
2022-11-13T02:08:44.422Z,8.20
2022-11-13T02:11:12.537Z,8.19
2022-11-13T02:13:40.842Z,8.16
2022-11-13T02:16:11.354Z,8.14
2022-11-13T02:18:41.359Z,8.12
2022-11-13T02:21:19.466Z,8.10
2022-11-13T02:23:54.336Z,8.08
2022-11-13T02:26:27.461Z,8.06
2022-11-13T02:28:55.273Z,8.07
2022-11-13T02:31:22.938Z,8.10
2022-11-13T02:33:50.636Z,8.10
2022-11-13T02:36:22.183Z,8.10
2022-11-13T02:38:51.395Z,8.11
2022-11-13T02:41:19.145Z,8.09
2022-11-13T02:43:48.266Z,8.09
2022-11-13T02:46:15.949Z,8.12
2022-11-13T02:48:43.620Z,8.10
2022-11-13T02:51:11.337Z,8.10
2022-11-13T02:53:39.069Z,8.09
2022-11-13T02:56:07.494Z,8.09
2022-11-13T02:58:35.341Z,8.08
2022-11-13T03:01:05.149Z,8.06
2022-11-13T03:03:56.408Z,8.05
2022-11-13T03:06:20.536Z,8.00
2022-11-13T03:08:48.426Z,7.97
2022-11-13T03:11:16.130Z,7.92
2022-11-13T03:13:43.828Z,7.91
2022-11-13T03:16:14.841Z,7.92
2022-11-13T03:18:42.754Z,7.92
2022-11-13T03:21:13.083Z,7.91
2022-11-13T03:23:44.991Z,7.89
2022-11-13T03:26:15.770Z,7.87
2022-11-13T03:28:44.302Z,7.84
2022-11-13T03:31:14.124Z,7.84
2022-11-13T03:33:42.018Z,7.81
2022-11-13T03:36:09.958Z,7.75
2022-11-13T03:38:37.956Z,7.73
2022-11-13T03:41:06.144Z,7.74
2022-11-13T03:43:33.841Z,7.74
2022-11-13T03:46:01.596Z,7.72
2022-11-13T03:48:30.922Z,7.72
2022-11-13T03:50:58.957Z,7.72
2022-11-13T03:53:26.954Z,7.70
2022-11-13T03:55:54.658Z,7.70
2022-11-13T03:58:22.376Z,7.65
2022-11-13T04:00:51.720Z,7.63
2022-11-13T04:03:20.103Z,7.60
2022-11-13T04:05:51.068Z,7.62
2022-11-13T04:08:19.396Z,7.61
2022-11-13T04:10:47.229Z,7.58
2022-11-13T04:13:15.020Z,7.55
2022-11-13T04:15:45.114Z,7.53
2022-11-13T04:18:13.009Z,7.45
2022-11-13T04:20:40.699Z,7.42
2022-11-13T04:23:12.601Z,7.39
2022-11-13T04:25:40.370Z,7.36
2022-11-13T04:28:08.093Z,7.33
2022-11-13T04:30:35.758Z,7.29
2022-11-13T04:33:03.481Z,7.25
2022-11-13T04:35:31.185Z,7.24
2022-11-13T04:37:58.857Z,7.21
2022-11-13T04:40:27.943Z,7.19
2022-11-13T04:42:54.645Z,7.16
2022-11-13T04:45:27.438Z,7.13
2022-11-13T04:47:55.213Z,7.08
2022-11-13T04:50:23.353Z,7.06
2022-11-13T04:52:51.398Z,7.04
2022-11-13T04:55:19.179Z,6.98
2022-11-13T04:57:51.463Z,6.97
2022-11-13T05:00:19.710Z,6.96
2022-11-13T05:02:47.461Z,6.92
2022-11-13T05:05:15.180Z,6.92
2022-11-13T05:07:43.480Z,6.92
2022-11-13T05:10:11.217Z,6.90
2022-11-13T05:12:38.884Z,6.86
2022-11-13T05:15:09.273Z,6.82
2022-11-13T05:17:37.074Z,6.78
2022-11-13T05:20:05.421Z,6.71
2022-11-13T05:22:33.097Z,6.66
2022-11-13T05:25:00.851Z,6.67
2022-11-13T05:27:28.519Z,6.66
2022-11-13T05:29:56.262Z,6.64
2022-11-13T05:32:25.357Z,6.60
2022-11-13T05:34:53.093Z,6.60
2022-11-13T05:37:20.898Z,6.55
2022-11-13T05:39:48.631Z,6.55
2022-11-13T05:42:16.387Z,6.53
2022-11-13T05:44:44.271Z,6.50
2022-11-13T05:47:11.943Z,6.48
2022-11-13T05:49:41.029Z,6.47
2022-11-13T05:52:08.774Z,6.44
2022-11-13T05:54:37.066Z,6.38
2022-11-13T05:57:04.943Z,6.36
2022-11-13T05:59:32.671Z,6.33
2022-11-13T06:02:02.510Z,6.32
2022-11-13T06:04:30.261Z,6.30
2022-11-13T06:06:59.362Z,6.29
2022-11-13T06:09:27.130Z,6.26
2022-11-13T06:11:54.779Z,6.25
2022-11-13T06:14:22.449Z,6.23
2022-11-13T06:16:50.154Z,6.20
2022-11-13T06:19:17.855Z,6.20
2022-11-13T06:21:45.548Z,6.19
2022-11-13T06:24:14.834Z,6.17
2022-11-13T06:26:42.854Z,6.16
2022-11-13T06:29:12.997Z,6.18
2022-11-13T06:31:40.835Z,6.14
2022-11-13T06:34:08.798Z,6.14
2022-11-13T06:36:38.113Z,6.14
2022-11-13T06:39:07.605Z,6.15
2022-11-13T06:41:38.247Z,6.16
2022-11-13T06:44:06.372Z,6.16
2022-11-13T06:46:34.359Z,6.12
2022-11-13T06:49:02.086Z,6.11
2022-11-13T06:51:31.401Z,6.08
2022-11-13T06:53:59.433Z,6.08
2022-11-13T06:56:27.561Z,6.06
2022-11-13T06:58:56.953Z,6.05
2022-11-13T07:01:26.717Z,6.03
2022-11-13T07:03:54.737Z,6.02
2022-11-13T07:06:24.267Z,6.00
2022-11-13T07:08:52.480Z,5.99
2022-11-13T07:11:22.339Z,6.00
2022-11-13T07:13:50.514Z,6.03
2022-11-13T07:16:19.984Z,6.03
2022-11-13T07:18:51.751Z,6.04
2022-11-13T07:21:20.057Z,6.05
2022-11-13T07:23:49.457Z,6.06
2022-11-13T07:26:17.333Z,6.08
2022-11-13T07:28:45.112Z,6.09
2022-11-13T07:31:14.256Z,6.09
2022-11-13T07:33:43.977Z,6.13
2022-11-13T07:36:12.073Z,6.16
2022-11-13T07:38:39.852Z,6.18
2022-11-13T07:41:08.381Z,6.21
2022-11-13T07:43:36.105Z,6.23
2022-11-13T07:46:03.889Z,6.24
2022-11-13T07:48:32.026Z,6.27
2022-11-13T07:51:02.867Z,6.29
2022-11-13T07:53:30.821Z,6.32
2022-11-13T07:56:02.177Z,6.36
2022-11-13T07:58:30.460Z,6.39
2022-11-13T08:01:03.224Z,6.42
2022-11-13T08:03:30.958Z,6.48
2022-11-13T08:06:03.547Z,6.49
2022-11-13T08:08:31.641Z,6.56
2022-11-13T08:10:59.591Z,6.63
2022-11-13T08:13:27.356Z,6.69
2022-11-13T08:15:55.074Z,6.75
2022-11-13T08:18:22.800Z,6.83
2022-11-13T08:20:50.552Z,6.90
2022-11-13T08:23:19.693Z,7.02
2022-11-13T08:25:47.606Z,7.13
2022-11-13T08:28:15.559Z,7.25
2022-11-13T08:30:45.026Z,7.37
2022-11-13T08:33:12.872Z,7.50
2022-11-13T08:35:40.583Z,7.61
2022-11-13T08:38:10.131Z,7.70
2022-11-13T08:40:39.357Z,7.79
2022-11-13T08:43:07.111Z,7.87
2022-11-13T08:45:34.851Z,7.94
2022-11-13T08:48:03.095Z,8.04
2022-11-13T08:50:32.072Z,8.11
2022-11-13T08:53:01.381Z,8.19
2022-11-13T08:55:29.587Z,8.24
2022-11-13T08:58:01.821Z,8.33
2022-11-13T09:00:30.904Z,8.41
2022-11-13T09:02:59.865Z,8.48
2022-11-13T09:05:27.927Z,8.56
2022-11-13T09:07:58.138Z,8.65
2022-11-13T09:10:26.937Z,8.74
2022-11-13T09:12:59.061Z,8.82
2022-11-13T09:15:28.839Z,8.90
2022-11-13T09:18:00.592Z,9.00
2022-11-13T09:20:29.118Z,9.08
2022-11-13T09:23:00.612Z,9.16
2022-11-13T09:25:35.835Z,9.25
2022-11-13T09:28:05.623Z,9.31
2022-11-13T09:30:34.814Z,9.38
2022-11-13T09:33:02.878Z,9.48
2022-11-13T09:35:35.088Z,9.59
2022-11-13T09:38:07.870Z,9.70
2022-11-13T09:40:42.978Z,9.81
2022-11-13T09:43:22.468Z,9.91
2022-11-13T09:45:54.028Z,9.99
2022-11-13T09:48:30.195Z,10.09
2022-11-13T09:51:00.647Z,10.16
2022-11-13T09:53:35.456Z,10.25
2022-11-13T09:56:16.027Z,10.34
2022-11-13T09:58:47.991Z,10.44
2022-11-13T10:01:27.168Z,10.51
2022-11-13T10:04:04.212Z,10.61
2022-11-13T10:06:47.835Z,10.71
2022-11-13T10:09:26.161Z,10.84
2022-11-13T10:11:56.675Z,10.96
2022-11-13T10:14:30.267Z,11.08
2022-11-13T10:17:04.617Z,11.20
2022-11-13T10:19:43.658Z,11.30
2022-11-13T10:22:34.116Z,11.42
2022-11-13T10:25:11.665Z,11.54
2022-11-13T10:27:39.771Z,11.61
2022-11-13T10:30:15.199Z,11.69
2022-11-13T10:32:45.365Z,11.79
2022-11-13T10:35:38.187Z,11.91
2022-11-13T10:38:09.165Z,12.03
2022-11-13T10:40:39.607Z,12.11
2022-11-13T10:43:15.282Z,12.21
2022-11-13T10:45:43.698Z,12.28
2022-11-13T10:48:22.331Z,12.35
2022-11-13T10:50:58.752Z,12.45
2022-11-13T10:53:28.918Z,12.57
2022-11-13T10:55:58.661Z,12.65
2022-11-13T10:58:27.042Z,12.73
2022-11-13T11:00:54.994Z,12.78
2022-11-13T11:03:25.803Z,12.97
2022-11-13T11:05:55.490Z,13.10
2022-11-13T11:08:27.492Z,13.22
2022-11-13T11:11:16.343Z,13.27
2022-11-13T11:13:44.658Z,13.32
2022-11-13T11:16:19.292Z,13.37
2022-11-13T11:18:53.882Z,13.44
2022-11-13T11:21:24.821Z,13.49
2022-11-13T11:23:58.817Z,13.56
2022-11-13T11:26:33.639Z,13.58
2022-11-13T11:29:17.578Z,13.61
2022-11-13T11:31:51.466Z,13.70
2022-11-13T11:34:25.449Z,13.78
2022-11-13T11:36:58.753Z,13.81
2022-11-13T11:39:30.621Z,13.81
2022-11-13T11:42:06.855Z,13.84
2022-11-13T11:44:43.698Z,13.89
2022-11-13T11:47:16.099Z,13.93
2022-11-13T11:49:46.379Z,14.00
2022-11-13T11:52:30.209Z,14.04
2022-11-13T11:55:08.496Z,14.09
2022-11-13T11:57:49.573Z,14.14
2022-11-13T12:00:19.693Z,14.22
2022-11-13T12:03:14.927Z,14.25
2022-11-13T12:05:56.331Z,14.30
2022-11-13T12:08:35.112Z,14.36
2022-11-13T12:11:12.843Z,14.45
2022-11-13T12:13:51.547Z,14.50
2022-11-13T12:16:25.520Z,14.54
2022-11-13T12:19:01.540Z,14.58
2022-11-13T12:21:40.718Z,14.63
2022-11-13T12:24:43.577Z,14.69
2022-11-13T12:27:22.393Z,14.74
2022-11-13T12:30:02.561Z,14.76
2022-11-13T12:32:45.595Z,14.87
2022-11-13T12:35:17.832Z,14.96
2022-11-13T12:37:53.688Z,15.02
2022-11-13T12:40:29.385Z,15.13
2022-11-13T12:43:08.382Z,15.16
2022-11-13T12:45:50.832Z,15.19
2022-11-13T12:48:28.006Z,15.19
2022-11-13T12:51:01.347Z,15.19
2022-11-13T12:53:32.609Z,15.22
2022-11-13T12:56:02.685Z,15.32
2022-11-13T12:58:32.652Z,15.43
2022-11-13T13:01:06.735Z,15.49
2022-11-13T13:04:03.383Z,15.54
2022-11-13T13:06:47.474Z,15.58
2022-11-13T13:09:31.131Z,15.62
2022-11-13T13:12:07.982Z,15.61
2022-11-13T13:15:04.148Z,15.61
2022-11-13T13:17:31.853Z,15.65
2022-11-13T13:20:01.513Z,15.64
2022-11-13T13:22:33.169Z,15.61
2022-11-13T13:25:05.267Z,15.59
2022-11-13T13:27:38.464Z,15.56
2022-11-13T13:30:21.913Z,15.58
2022-11-13T13:32:58.709Z,15.62
2022-11-13T13:35:31.630Z,15.61
2022-11-13T13:38:07.019Z,15.62
2022-11-13T13:40:42.239Z,15.60
2022-11-13T13:43:29.320Z,15.61
2022-11-13T13:46:05.815Z,15.61
2022-11-13T13:48:37.751Z,15.68
2022-11-13T13:51:12.864Z,15.79
2022-11-13T13:53:40.585Z,15.82
2022-11-13T13:56:13.295Z,15.83
2022-11-13T13:58:41.723Z,15.78
2022-11-13T14:01:19.671Z,15.73
2022-11-13T14:03:48.150Z,15.79
2022-11-13T14:06:21.075Z,15.78
2022-11-13T14:08:49.376Z,15.72
2022-11-13T14:11:20.462Z,15.68
2022-11-13T14:13:49.505Z,15.71
2022-11-13T14:16:17.212Z,15.75
2022-11-13T14:18:45.012Z,15.75
2022-11-13T14:21:16.616Z,15.74
2022-11-13T14:23:47.996Z,15.72
2022-11-13T14:26:16.196Z,15.67
2022-11-13T14:28:53.386Z,15.63
2022-11-13T14:31:26.470Z,15.60
2022-11-13T14:33:54.376Z,15.57
2022-11-13T14:36:29.866Z,15.57
2022-11-13T14:38:58.201Z,15.53
2022-11-13T14:41:32.868Z,15.46
2022-11-13T14:44:02.837Z,15.38
2022-11-13T14:46:32.944Z,15.31
2022-11-13T14:49:00.942Z,15.28
2022-11-13T14:51:30.718Z,15.20
2022-11-13T14:54:07.447Z,15.13
2022-11-13T14:56:40.292Z,15.05
2022-11-13T14:59:14.444Z,14.98
2022-11-13T15:01:55.225Z,14.95
2022-11-13T15:04:23.372Z,14.89
2022-11-13T15:06:58.007Z,14.79
2022-11-13T15:09:26.373Z,14.69
2022-11-13T15:11:54.125Z,14.64
2022-11-13T15:14:23.761Z,14.61
2022-11-13T15:16:53.672Z,14.59
2022-11-13T15:19:28.205Z,14.54
2022-11-13T15:22:25.092Z,14.46
2022-11-13T15:24:44.217Z,14.34
2022-11-13T15:27:14.947Z,14.26
2022-11-13T15:29:44.537Z,14.22
2022-11-13T15:32:13.969Z,14.19
2022-11-13T15:34:41.685Z,14.16
2022-11-13T15:37:13.872Z,14.10
2022-11-13T15:39:41.583Z,14.06
2022-11-13T15:42:14.464Z,14.00
2022-11-13T15:44:42.251Z,13.94
2022-11-13T15:47:29.648Z,13.87
2022-11-13T15:50:13.005Z,13.81
2022-11-13T15:52:48.679Z,13.74
2022-11-13T15:55:29.955Z,13.62
2022-11-13T15:57:59.105Z,13.54
2022-11-13T16:00:28.527Z,13.44
2022-11-13T16:03:01.183Z,13.35
2022-11-13T16:05:31.572Z,13.26
2022-11-13T16:07:59.305Z,13.18
2022-11-13T16:10:27.381Z,13.09
2022-11-13T16:12:55.401Z,13.04
2022-11-13T16:15:23.267Z,12.97
2022-11-13T16:17:53.675Z,12.93
2022-11-13T16:20:22.749Z,12.87
2022-11-13T16:22:50.617Z,12.78
2022-11-13T16:25:20.313Z,12.70
2022-11-13T16:27:48.662Z,12.64
2022-11-13T16:30:20.047Z,12.58
2022-11-13T16:32:48.555Z,12.55
2022-11-13T16:35:17.577Z,12.52
2022-11-13T16:37:47.291Z,12.49
2022-11-13T16:40:21.701Z,12.45
2022-11-13T16:42:49.395Z,12.40
2022-11-13T16:45:18.090Z,12.35
2022-11-13T16:47:46.422Z,12.27
2022-11-13T16:50:17.097Z,12.21
2022-11-13T16:52:46.199Z,12.17
2022-11-13T16:55:14.043Z,12.13
2022-11-13T16:57:42.348Z,12.05
2022-11-13T17:00:15.207Z,12.00
2022-11-13T17:02:43.155Z,11.96
2022-11-13T17:05:13.565Z,11.91
2022-11-13T17:07:41.449Z,11.86
2022-11-13T17:13:01.685Z,11.72
2022-11-13T17:15:29.423Z,11.72
2022-11-13T17:17:58.747Z,11.69
2022-11-13T17:20:26.629Z,11.69
2022-11-13T17:22:54.289Z,11.68
2022-11-13T17:25:26.476Z,11.67
2022-11-13T17:27:54.301Z,11.62
2022-11-13T17:30:22.046Z,11.55
2022-11-13T17:32:49.798Z,11.49
2022-11-13T17:35:17.711Z,11.46
2022-11-13T17:37:45.391Z,11.41
2022-11-13T17:40:13.248Z,11.43
2022-11-13T17:42:43.147Z,11.37
2022-11-13T17:45:11.591Z,11.32
2022-11-13T17:47:39.393Z,11.29
2022-11-13T17:50:08.104Z,11.28
2022-11-13T17:52:35.918Z,11.25
2022-11-13T17:55:06.072Z,11.20
2022-11-13T17:57:34.382Z,11.18
2022-11-13T18:00:04.830Z,11.17
2022-11-13T18:02:34.112Z,11.13
2022-11-13T18:05:04.181Z,11.11
2022-11-13T18:07:32.427Z,11.05
2022-11-13T18:10:00.148Z,10.98
2022-11-13T18:12:27.899Z,10.93
2022-11-13T18:14:55.706Z,10.87
2022-11-13T18:17:26.669Z,10.88
2022-11-13T18:20:01.339Z,10.93
2022-11-13T18:22:29.972Z,10.99
2022-11-13T18:24:57.759Z,11.01
2022-11-13T18:27:26.037Z,11.00
2022-11-13T18:29:53.740Z,10.99
2022-11-13T18:32:21.669Z,10.94
2022-11-13T18:34:50.888Z,10.92
2022-11-13T18:37:18.663Z,10.90
2022-11-13T18:39:46.470Z,10.93
2022-11-13T18:42:14.214Z,10.86
2022-11-13T18:44:42.024Z,10.85
2022-11-13T18:47:09.774Z,10.87
2022-11-13T18:49:37.666Z,10.83
2022-11-13T18:52:08.199Z,10.81
2022-11-13T18:54:36.087Z,10.78
2022-11-13T18:57:04.182Z,10.79
2022-11-13T18:59:32.537Z,10.82
2022-11-13T19:02:00.493Z,10.86
2022-11-13T19:04:28.323Z,10.85
2022-11-13T19:06:56.102Z,10.85
2022-11-13T19:09:25.267Z,10.85
2022-11-13T19:11:55.085Z,10.85
2022-11-13T19:14:22.802Z,10.81
2022-11-13T19:16:50.513Z,10.74
2022-11-13T19:19:22.264Z,10.69
2022-11-13T19:21:51.229Z,10.64
2022-11-13T19:24:19.027Z,10.59
2022-11-13T19:26:52.367Z,10.58
2022-11-13T19:29:20.557Z,10.59
2022-11-13T19:31:48.764Z,10.60
2022-11-13T19:34:16.631Z,10.59
2022-11-13T19:36:45.089Z,10.55
2022-11-13T19:39:13.483Z,10.51
2022-11-13T19:41:41.237Z,10.46
2022-11-13T19:44:10.944Z,10.48
2022-11-13T19:46:38.668Z,10.49
2022-11-13T19:49:06.967Z,10.48
2022-11-13T19:51:34.696Z,10.46
2022-11-13T19:54:02.436Z,10.47
2022-11-13T19:56:30.226Z,10.47
2022-11-13T19:58:57.913Z,10.48
2022-11-13T20:01:28.839Z,10.52
2022-11-13T20:03:57.536Z,10.58
2022-11-13T20:06:26.441Z,10.61
2022-11-13T20:08:54.162Z,10.61
2022-11-13T20:11:21.912Z,10.62
2022-11-13T20:13:49.762Z,10.62
2022-11-13T20:16:20.848Z,10.63
2022-11-13T20:18:50.610Z,10.59
2022-11-13T20:21:24.475Z,10.56
2022-11-13T20:23:53.028Z,10.53
2022-11-13T20:26:20.733Z,10.50
2022-11-13T20:28:48.453Z,10.48
2022-11-13T20:31:19.515Z,10.46
2022-11-13T20:33:49.341Z,10.45
2022-11-13T20:36:18.568Z,10.44
2022-11-13T20:38:50.540Z,10.43
2022-11-13T20:41:20.530Z,10.37
2022-11-13T20:43:48.963Z,10.36
2022-11-13T20:46:18.430Z,10.32
2022-11-13T20:48:46.615Z,10.29
2022-11-13T20:51:17.339Z,10.28
2022-11-13T20:53:45.050Z,10.25
2022-11-13T20:56:13.137Z,10.19
2022-11-13T20:58:42.967Z,10.13
2022-11-13T21:01:12.679Z,10.08
2022-11-13T21:03:45.197Z,10.02
2022-11-13T21:06:15.731Z,9.95
2022-11-13T21:08:45.521Z,9.89
2022-11-13T21:11:16.539Z,9.87
2022-11-13T21:13:44.473Z,9.86
2022-11-13T21:16:12.399Z,9.83
2022-11-13T21:18:40.134Z,9.78
2022-11-13T21:21:10.239Z,9.72
2022-11-13T21:23:38.585Z,9.68
2022-11-13T21:26:09.195Z,9.68
2022-11-13T21:28:37.497Z,9.66
2022-11-13T21:31:07.290Z,9.68
2022-11-13T21:33:37.664Z,9.68
2022-11-13T21:36:06.700Z,9.68
2022-11-13T21:38:34.749Z,9.60
2022-11-13T21:41:21.447Z,9.59
2022-11-13T21:43:51.278Z,9.60
2022-11-13T21:46:20.232Z,9.55
2022-11-13T21:48:48.068Z,9.53
2022-11-13T21:51:15.928Z,9.53
2022-11-13T21:53:43.899Z,9.53
2022-11-13T21:56:15.655Z,9.52
2022-11-13T21:58:44.465Z,9.51
2022-11-13T22:01:14.362Z,9.53
2022-11-13T22:03:42.339Z,9.50
2022-11-13T22:06:17.227Z,9.45
2022-11-13T22:08:46.117Z,9.46
2022-11-13T22:11:14.314Z,9.42
2022-11-13T22:13:41.998Z,9.41
2022-11-13T22:16:12.194Z,9.36
2022-11-13T22:18:41.416Z,9.32
2022-11-13T22:21:11.863Z,9.27
2022-11-13T22:23:39.826Z,9.24
2022-11-13T22:26:09.204Z,9.23
2022-11-13T22:28:38.608Z,9.22
2022-11-13T22:31:07.432Z,9.16
2022-11-13T22:33:37.111Z,9.15
2022-11-13T22:36:08.630Z,9.11
2022-11-13T22:38:37.193Z,9.07
2022-11-13T22:41:06.438Z,9.05
2022-11-13T22:43:35.560Z,9.02
2022-11-13T22:46:05.013Z,8.99
2022-11-13T22:48:33.162Z,8.94
2022-11-13T22:51:07.731Z,8.92
2022-11-13T22:53:35.443Z,8.92
2022-11-13T22:56:04.651Z,8.88
2022-11-13T22:58:32.470Z,8.82
2022-11-13T23:01:07.559Z,8.82
2022-11-13T23:03:38.371Z,8.78
2022-11-13T23:06:08.726Z,8.75
2022-11-13T23:08:38.882Z,8.72
2022-11-13T23:11:07.554Z,8.69
2022-11-13T23:13:35.613Z,8.71
2022-11-13T23:16:03.804Z,8.70
2022-11-13T23:18:32.601Z,8.66
2022-11-13T23:21:03.393Z,8.59
2022-11-13T23:23:33.049Z,8.55
2022-11-13T23:26:03.411Z,8.53
2022-11-13T23:28:31.810Z,8.53
2022-11-13T23:30:59.822Z,8.51
2022-11-13T23:33:27.753Z,8.46
2022-11-13T23:35:55.474Z,8.43
2022-11-13T23:38:23.476Z,8.37
2022-11-13T23:40:55.881Z,8.34
2022-11-13T23:43:36.477Z,8.32
2022-11-13T23:46:12.190Z,8.34
2022-11-13T23:48:40.312Z,8.33
2022-11-13T23:51:08.307Z,8.30
2022-11-13T23:53:36.003Z,8.26
2022-11-13T23:56:05.608Z,8.22
2022-11-13T23:58:33.634Z,8.23
